Time;durP1;ratioP1;P1;durP2;ratioP2;P2;SDS_P1;SDS_P2;PMS_P1;PMS_P2;Temp;Humidity;BMP_temperature;BMP_pressure;BME280_temperature;BME280_humidity;BME280_pressure;Samples;Min_cycle;Max_cycle;Signal;HPM_P1;HPM_P2
2021/08/21 00:01:12;;;;;;;17.92;8.95;;;;;;;;;;4941077;28;20045;-63
2021/08/21 00:03:37;;;;;;;20.35;9.23;;;;;;;;;;4940209;28;20043;-64
2021/08/21 00:06:12;;;;;;;18.15;8.55;;;;;;;;;;4942022;28;20043;-63
2021/08/21 00:08:38;;;;;;;15.70;8.30;;;;;;;;;;4939638;28;22897;-64
2021/08/21 00:11:07;;;;;;;33.78;8.95;;;;;;;;;;4942457;28;20042;-64
2021/08/21 00:13:32;;;;;;;18.50;8.85;;;;;;;;;;4941631;28;20925;-63
2021/08/21 00:16:03;;;;;;;21.55;9.02;;;;;;;;;;4923358;28;20145;-64
2021/08/21 00:18:33;;;;;;;20.90;8.52;;;;;;;;;;4940619;28;20474;-63
2021/08/21 00:21:01;;;;;;;20.20;10.18;;;;;;;;;;4940074;28;20034;-63
2021/08/21 00:23:26;;;;;;;24.35;10.65;;;;;;;;;;4938627;28;20034;-65
2021/08/21 00:25:51;;;;;;;25.35;9.82;;;;;;;;;;4940114;28;20042;-62
2021/08/21 00:28:17;;;;;;;21.13;10.15;;;;;;;;;;4940964;28;20143;-63
2021/08/21 00:30:43;;;;;;;21.15;9.98;;;;;;;;;;4940347;28;20045;-63
2021/08/21 00:33:11;;;;;;;24.60;9.90;;;;;;;;;;4940444;28;20030;-63
2021/08/21 00:35:37;;;;;;;23.15;9.93;;;;;;;;;;4940943;28;20050;-64
2021/08/21 00:38:02;;;;;;;18.50;8.45;;;;;;;;;;4941264;28;20031;-63
2021/08/21 00:40:31;;;;;;;21.05;9.73;;;;;;;;;;4941570;28;20034;-63
2021/08/21 00:43:03;;;;;;;21.63;9.65;;;;;;;;;;4941093;28;20042;-64
2021/08/21 00:45:29;;;;;;;22.02;8.73;;;;;;;;;;4934035;28;20172;-64
2021/08/21 00:47:59;;;;;;;23.23;9.63;;;;;;;;;;4923773;28;20042;-64
2021/08/21 00:50:25;;;;;;;24.95;10.00;;;;;;;;;;4942943;28;20035;-64
2021/08/21 00:52:50;;;;;;;19.52;8.98;;;;;;;;;;4921232;28;20037;-64
2021/08/21 00:55:16;;;;;;;18.77;8.10;;;;;;;;;;4932080;28;20774;-63
2021/08/21 00:57:43;;;;;;;19.45;9.07;;;;;;;;;;4940597;28;20023;-63
2021/08/21 01:00:10;;;;;;;20.42;8.27;;;;;;;;;;4940238;28;20105;-63
2021/08/21 01:02:36;;;;;;;21.42;8.98;;;;;;;;;;4941229;28;20038;-64
2021/08/21 01:05:05;;;;;;;23.08;8.15;;;;;;;;;;4940488;28;20034;-64
2021/08/21 01:07:32;;;;;;;15.70;7.13;;;;;;;;;;4940578;28;20630;-63
2021/08/21 01:09:59;;;;;;;15.18;7.90;;;;;;;;;;4939426;28;20036;-63
2021/08/21 01:12:24;;;;;;;15.95;7.72;;;;;;;;;;4938595;28;20030;-63
2021/08/21 01:14:55;;;;;;;22.65;8.35;;;;;;;;;;4927406;28;20093;-64
2021/08/21 01:17:21;;;;;;;15.15;8.27;;;;;;;;;;4938502;28;20030;-63
2021/08/21 01:19:50;;;;;;;16.48;8.55;;;;;;;;;;4937452;28;20157;-64
2021/08/21 01:22:17;;;;;;;18.63;8.50;;;;;;;;;;4939511;28;20208;-64
2021/08/21 01:24:50;;;;;;;19.25;9.38;;;;;;;;;;4939598;28;20121;-64
2021/08/21 01:27:19;;;;;;;23.42;8.80;;;;;;;;;;4938467;28;20027;-63
2021/08/21 01:29:44;;;;;;;20.77;8.95;;;;;;;;;;4939281;28;20561;-64
2021/08/21 01:32:09;;;;;;;19.00;9.30;;;;;;;;;;4937225;28;20121;-64
2021/08/21 01:34:38;;;;;;;16.90;8.25;;;;;;;;;;4938563;28;20027;-64
2021/08/21 01:37:03;;;;;;;17.90;8.65;;;;;;;;;;4937496;28;20544;-64
2021/08/21 01:39:32;;;;;;;19.55;8.77;;;;;;;;;;4937904;28;20906;-64
2021/08/21 01:41:59;;;;;;;19.48;8.55;;;;;;;;;;4937522;28;20186;-64
2021/08/21 01:44:27;;;;;;;13.38;7.57;;;;;;;;;;4939589;28;20074;-64
2021/08/21 01:46:57;;;;;;;21.58;9.25;;;;;;;;;;4935760;28;20031;-64
2021/08/21 01:49:27;;;;;;;18.45;8.63;;;;;;;;;;4942752;28;20043;-64
2021/08/21 01:51:53;;;;;;;18.15;7.43;;;;;;;;;;4929792;28;20682;-64
2021/08/21 01:54:26;;;;;;;14.23;7.78;;;;;;;;;;4943521;28;20088;-64
2021/08/21 01:56:56;;;;;;;15.80;8.02;;;;;;;;;;4923089;28;20283;-63
2021/08/21 01:59:26;;;;;;;17.23;7.93;;;;;;;;;;4937232;28;22252;-64
2021/08/21 02:01:52;;;;;;;18.75;8.18;;;;;;;;;;4910899;28;20126;-64
2021/08/21 02:04:20;;;;;;;15.98;7.93;;;;;;;;;;4926342;28;20042;-63
2021/08/21 02:06:49;;;;;;;15.75;7.13;;;;;;;;;;4935007;28;20458;-63
2021/08/21 02:09:18;;;;;;;13.88;7.53;;;;;;;;;;4941500;28;20027;-64
2021/08/21 02:11:49;;;;;;;12.35;7.25;;;;;;;;;;4940709;28;20571;-64
2021/08/21 02:14:20;;;;;;;12.45;7.43;;;;;;;;;;4930709;28;20035;-63
2021/08/21 02:16:49;;;;;;;15.00;7.80;;;;;;;;;;4941488;28;20035;-63
2021/08/21 02:19:17;;;;;;;14.13;7.43;;;;;;;;;;4942298;28;20035;-64
2021/08/21 02:21:43;;;;;;;16.38;8.07;;;;;;;;;;4943066;28;20509;-64
2021/08/21 02:24:09;;;;;;;15.30;6.88;;;;;;;;;;4910239;28;20043;-64
2021/08/21 02:26:41;;;;;;;17.48;8.68;;;;;;;;;;4941447;28;20044;-64
2021/08/21 02:29:41;;;;;;;16.83;8.07;;;;;;;;;;4924456;28;20639;-64
2021/08/21 02:32:11;;;;;;;16.13;8.10;;;;;;;;;;4941464;28;20054;-64
2021/08/21 02:34:39;;;;;;;17.77;7.60;;;;;;;;;;4941350;28;20056;-64
2021/08/21 02:37:05;;;;;;;11.85;7.20;;;;;;;;;;4939449;28;20034;-64
2021/08/21 02:39:32;;;;;;;15.75;8.07;;;;;;;;;;4925721;28;20042;-64
2021/08/21 02:41:58;;;;;;;13.98;7.25;;;;;;;;;;4937985;28;20035;-64
2021/08/21 02:44:23;;;;;;;21.05;7.97;;;;;;;;;;4913396;28;20078;-64
2021/08/21 02:46:50;;;;;;;17.50;7.72;;;;;;;;;;4940928;28;20046;-64
2021/08/21 02:49:17;;;;;;;24.23;8.75;;;;;;;;;;4910882;28;20038;-64
2021/08/21 02:51:48;;;;;;;12.73;7.13;;;;;;;;;;4940098;28;20638;-64
2021/08/21 02:54:16;;;;;;;14.43;8.18;;;;;;;;;;4942117;28;20035;-64
2021/08/21 02:56:43;;;;;;;15.27;7.35;;;;;;;;;;4939722;28;20050;-64
2021/08/21 02:59:09;;;;;;;12.30;7.05;;;;;;;;;;4941021;28;20158;-64
2021/08/21 03:01:35;;;;;;;18.02;8.23;;;;;;;;;;4941930;28;20118;-64
2021/08/21 03:04:03;;;;;;;13.75;7.90;;;;;;;;;;4942457;28;20027;-64
2021/08/21 03:06:29;;;;;;;18.10;8.57;;;;;;;;;;4942062;28;20041;-64
2021/08/21 03:08:54;;;;;;;18.02;8.50;;;;;;;;;;4941295;28;20035;-64
2021/08/21 03:11:20;;;;;;;20.58;8.07;;;;;;;;;;4910977;28;20051;-64
2021/08/21 03:13:48;;;;;;;15.77;8.02;;;;;;;;;;4942800;28;20038;-66
2021/08/21 03:16:14;;;;;;;15.27;7.95;;;;;;;;;;4941354;28;20146;-67
2021/08/21 03:18:39;;;;;;;18.45;8.88;;;;;;;;;;4940195;28;20023;-63
2021/08/21 03:21:07;;;;;;;16.70;8.70;;;;;;;;;;4940489;28;20043;-66
2021/08/21 03:23:33;;;;;;;17.50;8.98;;;;;;;;;;4940839;28;20321;-65
2021/08/21 03:26:01;;;;;;;22.48;9.60;;;;;;;;;;4925801;28;20123;-65
2021/08/21 03:28:27;;;;;;;22.33;9.45;;;;;;;;;;4939542;28;20046;-65
2021/08/21 03:30:55;;;;;;;23.77;9.35;;;;;;;;;;4925339;28;20120;-66
2021/08/21 03:33:24;;;;;;;21.33;9.23;;;;;;;;;;4940155;28;20145;-64
2021/08/21 03:35:50;;;;;;;22.55;10.07;;;;;;;;;;4925014;28;20701;-63
2021/08/21 03:38:18;;;;;;;30.20;10.27;;;;;;;;;;4923485;28;20031;-63
2021/08/21 03:40:48;;;;;;;19.23;8.77;;;;;;;;;;4939578;28;20106;-63
2021/08/21 03:43:14;;;;;;;16.52;9.00;;;;;;;;;;4927898;28;20050;-63
2021/08/21 03:45:41;;;;;;;23.60;9.95;;;;;;;;;;4940405;28;20126;-63
2021/08/21 03:48:12;;;;;;;21.48;9.50;;;;;;;;;;4941417;28;21056;-63
2021/08/21 03:50:40;;;;;;;21.58;9.38;;;;;;;;;;4943809;28;20039;-64
2021/08/21 03:53:05;;;;;;;21.60;9.57;;;;;;;;;;4941312;28;20050;-65
2021/08/21 03:55:33;;;;;;;23.73;10.35;;;;;;;;;;4938875;28;20031;-63
2021/08/21 03:58:00;;;;;;;21.40;11.23;;;;;;;;;;4921512;28;20050;-63
2021/08/21 04:00:25;;;;;;;24.05;10.82;;;;;;;;;;4940910;28;20452;-63
2021/08/21 04:02:53;;;;;;;25.23;11.07;;;;;;;;;;4938966;28;20043;-64
2021/08/21 04:05:19;;;;;;;27.25;11.88;;;;;;;;;;4907367;28;20031;-66
2021/08/21 04:07:45;;;;;;;26.70;11.60;;;;;;;;;;4940010;28;20039;-64
2021/08/21 04:10:12;;;;;;;26.40;11.57;;;;;;;;;;4924422;28;20090;-64
2021/08/21 04:12:38;;;;;;;21.77;10.20;;;;;;;;;;4939433;28;22881;-64
2021/08/21 04:15:08;;;;;;;21.90;11.90;;;;;;;;;;4940044;28;20034;-64
2021/08/21 04:17:36;;;;;;;27.17;12.38;;;;;;;;;;4926803;28;20665;-64
2021/08/21 04:20:05;;;;;;;21.52;10.57;;;;;;;;;;4937884;28;20062;-64
2021/08/21 04:22:31;;;;;;;27.55;11.60;;;;;;;;;;4939926;28;20042;-64
2021/08/21 04:24:59;;;;;;;26.55;12.95;;;;;;;;;;4938789;28;20165;-64
2021/08/21 04:27:27;;;;;;;25.42;12.05;;;;;;;;;;4939126;28;20023;-64
2021/08/21 04:29:53;;;;;;;27.08;12.68;;;;;;;;;;4937874;28;20085;-64
2021/08/21 04:32:21;;;;;;;28.83;12.93;;;;;;;;;;4940003;28;20027;-64
2021/08/21 04:34:52;;;;;;;24.48;12.60;;;;;;;;;;4939823;28;20031;-64
2021/08/21 04:37:20;;;;;;;28.63;12.68;;;;;;;;;;4937095;28;20170;-64
2021/08/21 04:39:46;;;;;;;24.90;12.05;;;;;;;;;;4922618;28;20054;-63
2021/08/21 04:42:14;;;;;;;24.83;12.13;;;;;;;;;;4919373;28;20478;-64
2021/08/21 04:44:41;;;;;;;26.30;12.98;;;;;;;;;;4922050;28;20972;-64
2021/08/21 04:47:10;;;;;;;25.40;12.77;;;;;;;;;;4922455;28;20107;-64
2021/08/21 04:49:37;;;;;;;26.63;12.80;;;;;;;;;;4938623;28;20034;-64
2021/08/21 04:52:04;;;;;;;33.08;12.98;;;;;;;;;;4938314;28;20035;-64
2021/08/21 04:54:29;;;;;;;29.13;13.68;;;;;;;;;;4939499;28;20038;-64
2021/08/21 04:56:54;;;;;;;32.08;14.20;;;;;;;;;;4939182;28;20058;-63
2021/08/21 04:59:20;;;;;;;23.33;12.27;;;;;;;;;;4920752;28;20043;-64
2021/08/21 05:01:45;;;;;;;31.85;13.00;;;;;;;;;;4940150;28;20050;-63
2021/08/21 05:04:15;;;;;;;29.83;13.02;;;;;;;;;;4937119;28;20039;-64
2021/08/21 05:06:41;;;;;;;28.10;13.88;;;;;;;;;;4938908;28;20030;-64
2021/08/21 05:09:08;;;;;;;22.60;11.85;;;;;;;;;;4925775;28;20031;-64
2021/08/21 05:11:34;;;;;;;26.80;12.38;;;;;;;;;;4940247;28;20057;-64
2021/08/21 05:13:59;;;;;;;28.27;13.20;;;;;;;;;;4936818;28;20034;-64
2021/08/21 05:16:29;;;;;;;22.92;12.25;;;;;;;;;;4939279;28;20035;-65
2021/08/21 05:19:04;;;;;;;27.35;12.77;;;;;;;;;;4938776;28;20127;-64
2021/08/21 05:21:35;;;;;;;30.85;12.32;;;;;;;;;;4921461;28;20034;-64
2021/08/21 05:24:03;;;;;;;24.95;12.52;;;;;;;;;;4938490;28;20186;-65
2021/08/21 05:26:29;;;;;;;25.98;12.05;;;;;;;;;;4920796;28;20050;-65
2021/08/21 05:28:55;;;;;;;23.23;11.70;;;;;;;;;;4939788;28;20042;-65
2021/08/21 05:31:25;;;;;;;19.60;11.38;;;;;;;;;;4939995;28;20023;-63
2021/08/21 05:33:51;;;;;;;22.95;12.45;;;;;;;;;;4940404;28;20041;-63
2021/08/21 05:36:21;;;;;;;22.75;11.32;;;;;;;;;;4938796;28;20038;-64
2021/08/21 05:38:47;;;;;;;24.52;12.25;;;;;;;;;;4941881;28;20046;-64
2021/08/21 05:41:12;;;;;;;23.27;10.98;;;;;;;;;;4937891;28;20557;-64
2021/08/21 05:43:38;;;;;;;19.85;10.82;;;;;;;;;;4941645;28;20042;-64
2021/08/21 05:46:06;;;;;;;21.05;11.40;;;;;;;;;;4922140;28;20047;-64
2021/08/21 05:48:34;;;;;;;35.45;11.15;;;;;;;;;;4940521;28;20094;-64
2021/08/21 05:51:00;;;;;;;20.58;10.82;;;;;;;;;;4920867;28;20047;-64
2021/08/21 05:53:28;;;;;;;20.30;10.27;;;;;;;;;;4924731;28;20034;-64
2021/08/21 05:55:59;;;;;;;25.73;11.90;;;;;;;;;;4924729;28;20043;-63
2021/08/21 05:58:24;;;;;;;20.42;11.43;;;;;;;;;;4924850;28;20097;-65
2021/08/21 06:00:54;;;;;;;20.95;10.90;;;;;;;;;;4941869;28;20121;-65
2021/08/21 06:03:20;;;;;;;24.75;11.02;;;;;;;;;;4939130;28;20691;-64
2021/08/21 06:05:48;;;;;;;28.83;12.13;;;;;;;;;;4939618;28;20035;-64
2021/08/21 06:08:13;;;;;;;21.27;11.50;;;;;;;;;;4937363;28;20031;-64
2021/08/21 06:10:41;;;;;;;21.75;11.80;;;;;;;;;;4938161;28;20050;-64
2021/08/21 06:13:07;;;;;;;23.45;11.30;;;;;;;;;;4927054;28;20071;-64
2021/08/21 06:15:35;;;;;;;22.48;12.30;;;;;;;;;;4940468;28;22027;-65
2021/08/21 06:18:00;;;;;;;20.65;11.38;;;;;;;;;;4937353;28;20114;-64
2021/08/21 06:20:26;;;;;;;23.90;12.27;;;;;;;;;;4942489;28;20023;-65
2021/08/21 06:22:52;;;;;;;24.85;11.23;;;;;;;;;;4942435;28;20034;-64
2021/08/21 06:25:17;;;;;;;25.60;12.68;;;;;;;;;;4930547;28;23972;-65
2021/08/21 06:27:43;;;;;;;25.40;12.45;;;;;;;;;;4940698;28;20394;-64
2021/08/21 06:30:11;;;;;;;24.02;12.30;;;;;;;;;;4942686;28;20027;-65
2021/08/21 06:32:37;;;;;;;23.48;12.52;;;;;;;;;;4942890;28;20043;-64
2021/08/21 06:35:08;;;;;;;23.88;12.32;;;;;;;;;;4927488;28;20042;-64
2021/08/21 06:37:36;;;;;;;24.42;12.35;;;;;;;;;;4943241;28;20042;-64
2021/08/21 06:40:02;;;;;;;24.40;12.90;;;;;;;;;;4931425;28;20027;-64
2021/08/21 06:42:29;;;;;;;23.33;12.55;;;;;;;;;;4942871;28;20105;-64
2021/08/21 06:44:58;;;;;;;25.25;13.18;;;;;;;;;;4943779;28;20047;-64
2021/08/21 06:47:23;;;;;;;22.15;12.75;;;;;;;;;;4927925;28;20046;-65
2021/08/21 06:49:48;;;;;;;24.83;12.27;;;;;;;;;;4937214;28;20051;-65
2021/08/21 06:52:16;;;;;;;21.70;12.38;;;;;;;;;;4942923;28;20035;-64
2021/08/21 06:54:51;;;;;;;25.92;12.73;;;;;;;;;;4927957;28;20083;-64
2021/08/21 06:57:22;;;;;;;24.40;13.00;;;;;;;;;;4939756;28;20054;-65
2021/08/21 06:59:50;;;;;;;23.83;12.15;;;;;;;;;;4924915;28;20647;-65
2021/08/21 07:02:18;;;;;;;23.65;12.68;;;;;;;;;;4942600;28;20722;-65
2021/08/21 07:04:44;;;;;;;18.80;12.52;;;;;;;;;;4942728;28;20776;-65
2021/08/21 07:07:10;;;;;;;20.08;11.88;;;;;;;;;;4941933;28;20031;-65
2021/08/21 07:09:42;;;;;;;20.83;10.77;;;;;;;;;;4909795;28;20506;-63
2021/08/21 07:12:13;;;;;;;15.82;9.95;;;;;;;;;;4942238;28;20046;-64
2021/08/21 07:14:39;;;;;;;17.75;10.57;;;;;;;;;;4939183;28;20095;-66
2021/08/21 07:17:08;;;;;;;19.77;11.15;;;;;;;;;;4940802;28;20106;-65
2021/08/21 07:19:34;;;;;;;20.70;11.88;;;;;;;;;;4935880;28;20031;-66
2021/08/21 07:22:02;;;;;;;17.35;11.35;;;;;;;;;;4938439;28;20030;-65
2021/08/21 07:24:30;;;;;;;22.52;11.65;;;;;;;;;;4926368;28;20067;-67
2021/08/21 07:27:01;;;;;;;18.95;10.82;;;;;;;;;;4925127;28;21427;-65
2021/08/21 07:29:27;;;;;;;18.85;11.77;;;;;;;;;;4940885;28;20039;-67
2021/08/21 07:31:55;;;;;;;23.33;11.93;;;;;;;;;;4924934;28;20058;-67
2021/08/21 07:34:26;;;;;;;18.02;11.20;;;;;;;;;;4916718;28;20038;-65
2021/08/21 07:36:52;;;;;;;21.60;11.85;;;;;;;;;;4933812;28;20069;-66
2021/08/21 07:39:18;;;;;;;16.73;11.15;;;;;;;;;;4923072;28;21921;-66
2021/08/21 07:41:46;;;;;;;17.50;10.63;;;;;;;;;;4938717;28;20034;-67
2021/08/21 07:44:11;;;;;;;18.27;10.57;;;;;;;;;;4921231;28;20058;-66
2021/08/21 07:46:39;;;;;;;17.00;9.50;;;;;;;;;;4935024;28;20714;-65
2021/08/21 07:49:07;;;;;;;15.75;10.20;;;;;;;;;;4934532;28;20034;-65
2021/08/21 07:51:38;;;;;;;14.70;9.48;;;;;;;;;;4933811;28;20031;-65
2021/08/21 07:54:06;;;;;;;12.45;8.82;;;;;;;;;;4932675;28;20038;-65
2021/08/21 07:56:34;;;;;;;16.88;10.45;;;;;;;;;;4920911;28;20035;-65
2021/08/21 07:58:59;;;;;;;16.88;9.02;;;;;;;;;;4936306;28;20130;-66
2021/08/21 08:01:28;;;;;;;14.57;9.25;;;;;;;;;;4937398;28;20035;-65
2021/08/21 08:03:53;;;;;;;15.00;9.82;;;;;;;;;;4939970;28;20065;-66
2021/08/21 08:06:21;;;;;;;14.90;8.80;;;;;;;;;;4942092;28;20023;-66
2021/08/21 08:08:50;;;;;;;14.68;9.38;;;;;;;;;;4936477;28;20050;-66
2021/08/21 08:11:15;;;;;;;13.85;9.75;;;;;;;;;;4933542;28;20057;-66
2021/08/21 08:13:46;;;;;;;16.48;9.00;;;;;;;;;;4933828;28;20087;-65
2021/08/21 08:16:14;;;;;;;14.93;9.57;;;;;;;;;;4921283;28;20069;-65
2021/08/21 08:18:45;;;;;;;20.50;9.43;;;;;;;;;;4920465;28;20146;-65
2021/08/21 08:21:15;;;;;;;15.07;8.57;;;;;;;;;;4934338;28;20086;-65
2021/08/21 08:23:43;;;;;;;13.48;8.10;;;;;;;;;;4936545;28;20035;-66
2021/08/21 08:26:09;;;;;;;13.32;8.30;;;;;;;;;;4931901;28;20035;-65
2021/08/21 08:28:38;;;;;;;13.02;8.25;;;;;;;;;;4920050;28;20111;-64
2021/08/21 08:31:07;;;;;;;13.48;8.85;;;;;;;;;;4938248;28;20022;-64
2021/08/21 08:33:34;;;;;;;14.70;8.82;;;;;;;;;;4933126;28;20066;-65
2021/08/21 08:36:02;;;;;;;14.15;8.55;;;;;;;;;;4915321;28;20031;-65
2021/08/21 08:38:27;;;;;;;13.05;8.43;;;;;;;;;;4934239;28;20037;-65
2021/08/21 08:40:53;;;;;;;15.57;9.23;;;;;;;;;;4916996;28;20122;-64
2021/08/21 08:43:20;;;;;;;13.43;9.10;;;;;;;;;;4922720;28;20030;-64
2021/08/21 08:45:48;;;;;;;12.07;7.90;;;;;;;;;;4937186;28;20034;-64
2021/08/21 08:48:16;;;;;;;13.38;7.60;;;;;;;;;;4934554;28;20742;-64
2021/08/21 08:50:42;;;;;;;11.73;7.82;;;;;;;;;;4904550;28;20058;-63
2021/08/21 08:53:08;;;;;;;12.05;7.00;;;;;;;;;;4931492;28;20038;-65
2021/08/21 08:55:33;;;;;;;14.00;6.15;;;;;;;;;;4932818;28;20855;-65
2021/08/21 08:58:04;;;;;;;12.50;6.47;;;;;;;;;;4933805;28;20091;-65
2021/08/21 09:00:32;;;;;;;10.60;6.53;;;;;;;;;;4936205;28;20097;-64
2021/08/21 09:03:03;;;;;;;16.58;8.15;;;;;;;;;;4937718;28;20990;-64
2021/08/21 09:05:43;;;;;;;11.88;7.45;;;;;;;;;;4939393;28;20032;-64
2021/08/21 09:08:19;;;;;;;15.10;7.40;;;;;;;;;;4936765;28;20041;-65
2021/08/21 09:10:45;;;;;;;14.50;6.78;;;;;;;;;;4933214;28;20046;-65
2021/08/21 09:13:15;;;;;;;11.98;6.85;;;;;;;;;;4915753;28;21145;-66
2021/08/21 09:15:46;;;;;;;10.23;6.50;;;;;;;;;;4938636;28;20085;-65
2021/08/21 09:18:23;;;;;;;10.65;6.40;;;;;;;;;;4917485;28;20063;-65
2021/08/21 09:20:51;;;;;;;9.95;5.97;;;;;;;;;;4931348;28;20034;-65
2021/08/21 09:23:26;;;;;;;11.30;6.43;;;;;;;;;;4917139;28;20031;-66
2021/08/21 09:25:54;;;;;;;9.27;6.68;;;;;;;;;;4930052;28;20027;-64
2021/08/21 09:28:22;;;;;;;11.15;6.40;;;;;;;;;;4930114;28;20030;-65
2021/08/21 09:30:47;;;;;;;9.10;6.45;;;;;;;;;;4920680;28;20131;-65
2021/08/21 09:33:17;;;;;;;8.82;5.50;;;;;;;;;;4917877;28;20102;-65
2021/08/21 09:35:44;;;;;;;7.05;5.43;;;;;;;;;;4934796;28;20042;-65
2021/08/21 09:38:14;;;;;;;8.30;6.22;;;;;;;;;;4935757;28;20049;-65
2021/08/21 09:40:40;;;;;;;7.95;5.03;;;;;;;;;;4922333;28;20115;-65
2021/08/21 09:43:21;;;;;;;8.32;5.10;;;;;;;;;;4915079;28;20161;-65
2021/08/21 09:45:46;;;;;;;9.00;5.57;;;;;;;;;;4918895;28;20030;-65
2021/08/21 09:48:15;;;;;;;6.15;5.10;;;;;;;;;;4931885;28;20145;-64
2021/08/21 09:50:41;;;;;;;6.63;5.07;;;;;;;;;;4920782;28;20031;-66
2021/08/21 09:53:08;;;;;;;7.07;4.90;;;;;;;;;;4932138;28;20035;-66
2021/08/21 09:55:36;;;;;;;8.05;4.43;;;;;;;;;;4935412;28;20056;-66
2021/08/21 09:58:05;;;;;;;8.32;5.35;;;;;;;;;;4929626;28;20146;-65
2021/08/21 10:00:34;;;;;;;5.97;4.03;;;;;;;;;;4931782;28;20278;-65
2021/08/21 10:03:05;;;;;;;6.25;4.32;;;;;;;;;;4936795;28;20150;-65
2021/08/21 10:05:31;;;;;;;5.55;3.47;;;;;;;;;;4941838;28;20023;-65
2021/08/21 10:08:03;;;;;;;8.13;3.70;;;;;;;;;;4943099;28;20076;-64
2021/08/21 10:10:34;;;;;;;6.50;4.53;;;;;;;;;;4934749;28;20047;-63
2021/08/21 10:13:10;;;;;;;10.48;5.28;;;;;;;;;;4918415;28;20523;-63
2021/08/21 10:15:37;;;;;;;7.78;5.22;;;;;;;;;;4936419;28;20038;-64
2021/08/21 10:18:08;;;;;;;6.78;4.35;;;;;;;;;;4929925;28;20023;-64
2021/08/21 10:20:34;;;;;;;4.70;3.80;;;;;;;;;;4938272;28;20042;-64
2021/08/21 10:23:25;;;;;;;3.40;2.88;;;;;;;;;;4929925;28;20066;-64
2021/08/21 10:26:18;;;;;;;4.18;2.15;;;;;;;;;;4926658;28;20048;-64
2021/08/21 10:28:48;;;;;;;2.63;2.20;;;;;;;;;;4918364;28;20233;-62
2021/08/21 10:31:33;;;;;;;3.40;2.63;;;;;;;;;;4926252;28;20151;-64
2021/08/21 10:34:04;;;;;;;4.25;2.38;;;;;;;;;;4935505;28;20061;-64
2021/08/21 10:36:42;;;;;;;3.67;2.47;;;;;;;;;;4919197;28;20035;-62
2021/08/21 10:39:15;;;;;;;5.82;2.63;;;;;;;;;;4935008;28;20046;-63
2021/08/21 10:41:42;;;;;;;4.72;3.08;;;;;;;;;;4933072;28;20070;-62
2021/08/21 10:44:08;;;;;;;2.80;2.45;;;;;;;;;;4934856;28;20181;-63
2021/08/21 10:46:33;;;;;;;4.60;2.90;;;;;;;;;;4934829;28;20047;-63
2021/08/21 10:49:04;;;;;;;5.32;3.63;;;;;;;;;;4939808;28;20029;-62
2021/08/21 10:51:32;;;;;;;6.82;4.15;;;;;;;;;;4939564;28;20035;-62
2021/08/21 10:54:01;;;;;;;8.80;3.95;;;;;;;;;;4943980;28;20046;-63
2021/08/21 10:56:47;;;;;;;5.93;3.85;;;;;;;;;;4942559;28;20940;-63
2021/08/21 10:59:32;;;;;;;4.25;2.88;;;;;;;;;;4942316;28;20054;-63
2021/08/21 11:02:18;;;;;;;6.82;3.33;;;;;;;;;;4922083;28;20034;-63
2021/08/21 11:04:46;;;;;;;4.75;3.58;;;;;;;;;;4942880;28;20026;-64
2021/08/21 11:07:32;;;;;;;4.70;2.88;;;;;;;;;;4926920;28;20039;-63
2021/08/21 11:10:14;;;;;;;3.75;2.42;;;;;;;;;;4935392;28;20414;-63
2021/08/21 11:12:45;;;;;;;5.25;2.95;;;;;;;;;;4933390;28;20122;-63
2021/08/21 11:15:22;;;;;;;3.88;3.15;;;;;;;;;;4919363;28;20038;-63
2021/08/21 11:17:48;;;;;;;6.00;2.45;;;;;;;;;;4918584;28;20077;-62
2021/08/21 11:20:28;;;;;;;4.15;2.92;;;;;;;;;;4939216;28;20031;-62
2021/08/21 11:23:08;;;;;;;3.35;2.88;;;;;;;;;;4935560;28;22181;-64
2021/08/21 11:25:39;;;;;;;2.80;2.28;;;;;;;;;;4934976;28;20023;-62
2021/08/21 11:28:20;;;;;;;4.18;2.70;;;;;;;;;;4939842;28;20046;-63
2021/08/21 11:31:07;;;;;;;3.00;2.50;;;;;;;;;;4934722;28;20039;-62
2021/08/21 11:33:33;;;;;;;3.88;2.85;;;;;;;;;;4935598;28;20034;-62
2021/08/21 11:36:01;;;;;;;3.17;2.88;;;;;;;;;;4933766;28;20145;-64
2021/08/21 11:38:28;;;;;;;5.72;2.85;;;;;;;;;;4916977;28;20058;-64
2021/08/21 11:40:55;;;;;;;3.95;2.38;;;;;;;;;;4936808;28;20035;-65
2021/08/21 11:43:25;;;;;;;3.28;2.20;;;;;;;;;;4932196;28;20018;-64
2021/08/21 11:45:51;;;;;;;2.90;2.55;;;;;;;;;;4934117;28;21777;-63
2021/08/21 11:48:17;;;;;;;3.72;2.40;;;;;;;;;;4918393;28;22028;-62
2021/08/21 11:50:45;;;;;;;5.25;2.30;;;;;;;;;;4931897;28;20509;-63
2021/08/21 11:53:16;;;;;;;2.20;2.00;;;;;;;;;;4940624;28;20027;-63
2021/08/21 11:55:45;;;;;;;6.43;2.10;;;;;;;;;;4923291;28;20031;-62
2021/08/21 11:58:10;;;;;;;1.60;1.50;;;;;;;;;;4922642;28;20054;-62
2021/08/21 12:00:40;;;;;;;2.28;1.40;;;;;;;;;;4921409;28;20023;-62
2021/08/21 12:03:08;;;;;;;2.70;2.17;;;;;;;;;;4939509;28;20035;-63
2021/08/21 12:05:36;;;;;;;1.70;1.60;;;;;;;;;;4939746;28;20043;-62
2021/08/21 12:08:21;;;;;;;2.15;1.30;;;;;;;;;;4940444;28;20029;-64
2021/08/21 12:10:52;;;;;;;3.03;1.65;;;;;;;;;;4937512;28;20042;-62
2021/08/21 12:13:24;;;;;;;1.15;1.13;;;;;;;;;;4922504;28;20047;-64
2021/08/21 12:15:52;;;;;;;1.75;1.63;;;;;;;;;;4942014;28;20058;-64
2021/08/21 12:18:22;;;;;;;2.20;1.55;;;;;;;;;;4937255;28;20042;-62
2021/08/21 12:20:50;;;;;;;1.70;1.60;;;;;;;;;;4923018;28;20053;-63
2021/08/21 12:23:18;;;;;;;0.98;0.82;;;;;;;;;;4938147;28;20491;-63
2021/08/21 12:25:47;;;;;;;1.33;1.10;;;;;;;;;;4938659;28;20036;-62
2021/08/21 12:28:16;;;;;;;1.92;1.30;;;;;;;;;;4938490;28;20050;-62
2021/08/21 12:31:03;;;;;;;1.58;1.33;;;;;;;;;;4926025;28;20038;-62
2021/08/21 12:33:30;;;;;;;2.45;1.20;;;;;;;;;;4937894;28;20137;-62
2021/08/21 12:36:08;;;;;;;1.50;1.05;;;;;;;;;;4940803;28;22082;-62
2021/08/21 12:38:36;;;;;;;1.77;1.30;;;;;;;;;;4938025;28;20075;-62
2021/08/21 12:41:17;;;;;;;0.77;0.77;;;;;;;;;;4920886;28;20030;-63
2021/08/21 12:43:45;;;;;;;1.15;1.05;;;;;;;;;;4922024;28;20034;-63
2021/08/21 12:46:19;;;;;;;1.63;1.40;;;;;;;;;;4938369;28;20023;-62
2021/08/21 12:48:46;;;;;;;1.15;1.05;;;;;;;;;;4919211;28;20042;-62
2021/08/21 12:51:12;;;;;;;1.55;1.20;;;;;;;;;;4923098;28;20087;-64
2021/08/21 12:53:37;;;;;;;0.95;0.90;;;;;;;;;;4925266;28;22917;-62
2021/08/21 12:56:09;;;;;;;1.33;0.95;;;;;;;;;;4917790;28;20473;-62
2021/08/21 12:58:39;;;;;;;1.45;0.93;;;;;;;;;;4936970;28;20953;-62
2021/08/21 13:01:07;;;;;;;2.00;1.20;;;;;;;;;;4936320;28;20038;-62
2021/08/21 13:03:35;;;;;;;1.25;1.05;;;;;;;;;;4938489;28;20038;-64
2021/08/21 13:06:04;;;;;;;1.08;0.98;;;;;;;;;;4937388;28;20035;-63
2021/08/21 13:08:35;;;;;;;0.88;0.73;;;;;;;;;;4914998;28;20042;-64
2021/08/21 13:11:01;;;;;;;1.48;0.90;;;;;;;;;;4923159;28;20130;-64
2021/08/21 13:13:30;;;;;;;0.90;0.90;;;;;;;;;;4928834;28;20089;-64
2021/08/21 13:16:03;;;;;;;1.02;0.75;;;;;;;;;;4936295;28;20042;-64
2021/08/21 13:18:31;;;;;;;0.93;0.93;;;;;;;;;;4938244;28;20031;-64
2021/08/21 13:20:59;;;;;;;5.35;1.17;;;;;;;;;;4937761;28;20074;-64
2021/08/21 13:23:28;;;;;;;1.25;1.15;;;;;;;;;;4936634;28;20034;-64
2021/08/21 13:25:56;;;;;;;1.10;1.00;;;;;;;;;;4938996;28;20031;-63
2021/08/21 13:28:22;;;;;;;2.55;1.23;;;;;;;;;;4936300;28;20390;-62
2021/08/21 13:30:47;;;;;;;2.22;1.33;;;;;;;;;;4936739;28;20951;-62
2021/08/21 13:33:14;;;;;;;1.15;1.10;;;;;;;;;;4937738;28;20109;-63
2021/08/21 13:35:39;;;;;;;1.50;1.25;;;;;;;;;;4936031;28;20029;-62
2021/08/21 13:38:08;;;;;;;1.55;1.35;;;;;;;;;;4922129;28;20347;-62
2021/08/21 13:40:34;;;;;;;1.45;1.35;;;;;;;;;;4936729;28;20031;-62
2021/08/21 13:42:59;;;;;;;2.00;1.80;;;;;;;;;;4937027;28;20133;-63
2021/08/21 13:45:27;;;;;;;2.88;1.52;;;;;;;;;;4894396;28;20031;-63
2021/08/21 13:47:53;;;;;;;1.23;1.13;;;;;;;;;;4937892;28;20533;-62
2021/08/21 13:50:21;;;;;;;1.60;1.42;;;;;;;;;;4922846;28;20035;-63
2021/08/21 13:52:51;;;;;;;3.25;1.60;;;;;;;;;;4921626;28;20039;-62
2021/08/21 13:55:22;;;;;;;1.88;1.65;;;;;;;;;;4936753;28;20047;-62
2021/08/21 13:57:52;;;;;;;4.32;1.70;;;;;;;;;;4936532;28;20134;-63
2021/08/21 14:00:21;;;;;;;2.50;1.45;;;;;;;;;;4935802;28;20113;-62
2021/08/21 14:02:48;;;;;;;5.05;1.75;;;;;;;;;;4891507;28;21011;-62
2021/08/21 14:05:14;;;;;;;3.45;1.98;;;;;;;;;;4908724;28;20043;-62
2021/08/21 14:07:42;;;;;;;1.85;1.63;;;;;;;;;;4927411;28;20719;-63
2021/08/21 14:10:12;;;;;;;1.63;1.50;;;;;;;;;;4938193;28;20030;-62
2021/08/21 14:12:38;;;;;;;2.35;1.33;;;;;;;;;;4921878;28;20043;-63
2021/08/21 14:15:08;;;;;;;1.40;1.30;;;;;;;;;;4935782;28;20042;-63
2021/08/21 14:17:34;;;;;;;1.50;1.40;;;;;;;;;;4936007;28;20046;-62
2021/08/21 14:20:01;;;;;;;1.60;1.50;;;;;;;;;;4919650;28;20070;-63
2021/08/21 14:22:27;;;;;;;2.67;2.30;;;;;;;;;;4936777;28;20487;-62
2021/08/21 14:24:55;;;;;;;1.90;1.75;;;;;;;;;;4920712;28;20039;-62
2021/08/21 14:27:25;;;;;;;3.72;1.90;;;;;;;;;;4935996;28;20031;-62
2021/08/21 14:29:56;;;;;;;1.65;1.42;;;;;;;;;;4936321;28;20031;-62
2021/08/21 14:32:22;;;;;;;2.85;1.70;;;;;;;;;;4937838;28;20031;-62
2021/08/21 14:34:48;;;;;;;2.67;1.85;;;;;;;;;;4929058;28;20588;-62
2021/08/21 14:37:13;;;;;;;3.58;1.80;;;;;;;;;;4920227;28;20101;-62
2021/08/21 14:39:41;;;;;;;2.92;2.05;;;;;;;;;;4936830;28;20035;-62